< Typhoon 202009 2020 Season Typhoon 202011 >
Typhoon 202010 (HAISHEN)
General InformationTrack Information on Google MapsDetailed Wind InformationForecast History on Google MapsAccess Analytics MapList of All Images || NewsDisaster Info.WeblogTrackbackTyphoon FrontTwiphoonTyphoon Now!Typhoon ImaginationJMA Disaster Info. XMLResourceGoogle EarthGE AnimationAtom FeedGeoJSON
Detalied Best Track (Time Zone = UTC)
Year Month Day Hour Lat. Long. Pressure (hPa) Wind (kt) Class Image Chart
2020 8 31 06 23.8 146.9 1006 30 2 Image Chart
2020 8 31 09 23.6 146.7 1008 30 2 Image Chart
2020 8 31 12 22.9 146.1 1008 30 2 Image Chart
2020 8 31 15 22.7 145.2 1008 30 2 Image Chart
2020 8 31 18 22.4 145.4 1006 30 2 Image Chart
2020 8 31 21 21.6 145.2 1006 30 2 Image Chart
2020 9 1 00 21.7 145.1 1006 30 2 Image Chart
2020 9 1 03 21.6 144.7 1004 30 2 Image Chart
2020 9 1 06 21.2 144.4 1004 30 2 Image Chart
2020 9 1 09 20.5 144.4 1002 30 2 Image Chart
2020 9 1 12 20.4 144.1 1000 40 3 Image Chart
2020 9 1 15 20.1 143.7 1000 40 3 Image Chart
2020 9 1 18 20.1 143.5 996 45 3 Image Chart
2020 9 1 21 19.6 143.0 996 45 3 Image Chart
2020 9 2 00 19.2 142.5 990 50 4 Image Chart
2020 9 2 03 19.3 142.1 990 50 4 Image Chart
2020 9 2 06 19.3 141.4 990 50 4 Image Chart
2020 9 2 09 19.5 141.0 990 50 4 Image Chart
2020 9 2 12 19.6 140.6 985 55 4 Image Chart
2020 9 2 15 19.9 140.0 985 55 4 Image Chart
2020 9 2 18 20.0 139.4 975 65 5 Image Chart
2020 9 2 21 20.1 139.0 975 65 5 Image Chart
2020 9 3 00 20.2 138.5 970 70 5 Image Chart
2020 9 3 03 20.5 138.2 970 70 5 Image Chart
2020 9 3 06 20.6 137.6 965 75 5 Image Chart
2020 9 3 09 20.9 137.1 955 80 5 Image Chart
2020 9 3 12 21.0 136.6 955 80 5 Image Chart
2020 9 3 15 21.1 136.1 955 80 5 Image Chart
2020 9 3 18 21.2 135.8 950 85 5 Image Chart
2020 9 3 21 21.5 135.6 950 85 5 Image Chart
2020 9 4 00 21.8 135.1 925 100 5 Image Chart
2020 9 4 03 22.0 134.7 925 100 5 Image Chart
2020 9 4 06 22.3 134.3 925 100 5 Image Chart
2020 9 4 09 22.5 134.0 920 100 5 Image Chart
2020 9 4 12 22.7 133.5 920 100 5 Image Chart
2020 9 4 15 23.0 133.1 920 100 5 Image Chart
2020 9 4 18 23.2 132.6 920 100 5 Image Chart
2020 9 4 21 23.5 132.3 920 100 5 Image Chart
2020 9 5 00 24.0 132.0 920 100 5 Image Chart
2020 9 5 03 24.2 131.6 920 100 5 Image Chart
2020 9 5 06 24.7 131.5 920 100 5 Image Chart
2020 9 5 09 25.0 131.2 920 100 5 Image Chart
2020 9 5 12 25.5 131.0 920 100 5 Image Chart
2020 9 5 15 25.8 130.9 920 100 5 Image Chart
2020 9 5 18 26.4 130.8 920 100 5 Image Chart
2020 9 5 21 27.1 130.8 925 95 5 Image Chart
2020 9 6 00 27.6 130.5 925 95 5 Image Chart
2020 9 6 03 28.5 130.3 935 90 5 Image Chart
2020 9 6 06 29.4 130.1 945 85 5 Image Chart
2020 9 6 09 30.3 129.8 945 85 5 Image Chart
2020 9 6 12 31.0 129.4 945 85 5 Image Chart
2020 9 6 15 31.8 129.3 945 85 5 Image Chart
2020 9 6 18 32.9 129.0 945 85 5 Image Chart
2020 9 6 21 34.0 129.1 950 80 5 Image Chart
2020 9 7 00 35.2 129.2 955 75 5 Image Chart
2020 9 7 03 37.2 129.6 960 70 5 Image Chart
2020 9 7 06 38.4 129.3 970 65 5 Image Chart
2020 9 7 09 39.5 128.6 970 65 5 Image Chart
2020 9 7 12 40.2 128.5 980 55 4 Image Chart
2020 9 7 15 41.4 129.1 985 50 4 Image Chart
2020 9 7 18 42.0 129.0 988 40 6 Image Chart
Japan Meteorological Agency Best Track Data | Correction Date : 2020-09-07
< Typhoon 202009 2020 Season Typhoon 202011 >

Help